Airport View

Enter ICAO identifier to see the current METAR for that AWOS.

KFNL for example

KS71 291815Z AUTO 09006KT 10SM 18/12 A3001

29 Aug 2014 18:20

Frequency: 118.35

Phone: 406-357-3453

Other Area AWOS: KHVR - CWEH - CWOE - CWVP

TAF KHVR 291736Z 2918/3018 VRB06KT P6SM SCT180 FM300500 11008KT P6SM BKN180 FM301000 24008KT P6SM BKN120